Classifiche di sempre
Migliori tempi personali validi di team tra tutti gli eventi e le stagioni. Ogni team compare una sola volta per divisione.
Cerca per nome e apri la pagina in cui è classificato questo record di divisione.
139,647 team in classifica
| Pos. | Pos. AG | Team | Nazionalità | Categoria età | TempoMiglior tempo | Distacco |
|---|---|---|---|---|---|---|
| 138951 | #19921 | Marcella Moultry & Kristie KingUSA · W 40-44 · AG #19921 | USA | W 40-44 | 2:22:10 | +88:49 |
| 138952 | #20660 | Jiratchaya Ruangdech & Panisara ThamareeratTHA · W 25-29 · AG #20660 | THA | W 25-29 | 2:22:10 | +88:49 |
| 138953 | #15434 | Desyree Hernandez & Alexis SullivanUSA · W 35-39 · AG #15434 | USA | W 35-39 | 2:22:10 | +88:49 |
| 138954 | #43700 | Yun-Hsi Chang & 艶涵 宋TPE · W 30-34 · AG #43700 | TPE | W 30-34 | 2:22:11 | +88:50 |
| 138955 | #43701 | Alma Esther Rosas Garcia & Cristina Elizabeth Vera VallejoW 30-34 · AG #43701 | -- | W 30-34 | 2:22:11 | +88:50 |
| 138956 | #15435 | Xochitl Romero & Johana RamirezMEX · W 35-39 · AG #15435 | MEX | W 35-39 | 2:22:12 | +88:51 |
| 138957 | #43702 | Angelique Cordier & Bright ZuluRSA · W 30-34 · AG #43702 | RSA | W 30-34 | 2:22:13 | +88:52 |
| 138958 | #11362 | Abiraami Ayyakkannu & Ryun Jia Ee KuaSIN · W 16-24 · AG #11362 | SIN | W 16-24 | 2:22:13 | +88:52 |
| 138959 | -- | Abbie Breslin & Sinead MurphyIRL · W WU29 | IRL | W WU29 | 2:22:16 | +88:55 |
| 138960 | #20661 | Gabrielle Massey & Katie FelgateGBR · W 25-29 · AG #20661 | GBR | W 25-29 | 2:22:17 | +88:56 |
| 138961 | #23 | Sari Sarhia & Tiina IsohanniFIN · W 65-69 · AG #23 | FIN | W 65-69 | 2:22:19 | +88:58 |
| 138962 | #11363 | Liesha Mehta & Helen KarandeW 16-24 · AG #11363 | -- | W 16-24 | 2:22:20 | +88:59 |
| 138963 | #19922 | Sarah Moore & Victoria RoweAUS · W 40-44 · AG #19922 | AUS | W 40-44 | 2:22:22 | +89:01 |
| 138964 | #19923 | Daphney Kgoale & Gloria LesetlaRSA · W 40-44 · AG #19923 | RSA | W 40-44 | 2:22:22 | +89:01 |
| 138965 | #19924 | 상경 윤 & 은희 최KOR · W 40-44 · AG #19924 | KOR | W 40-44 | 2:22:22 | +89:01 |
| 138966 | #43703 | Patcharrin Rattanasakul & Pattanan WimaluangtrakhulTHA · W 30-34 · AG #43703 | THA | W 30-34 | 2:22:24 | +89:03 |
| 138967 | #4777 | Natalie Tennant & Jenny MatthewsonGBR · W 45-49 · AG #4777 | GBR | W 45-49 | 2:22:26 | +89:05 |
| 138968 | #3363 | Debbie Case & Jocelyn MalimbanUSA · W 50-54 · AG #3363 | USA | W 50-54 | 2:22:27 | +89:06 |
| 138969 | #15436 | Hanyu Xu & Haifeng JinSIN · W 35-39 · AG #15436 | SIN | W 35-39 | 2:22:27 | +89:06 |
| 138970 | #260 | Naomi Brown & Lesley MarshW 60-64 · AG #260 | -- | W 60-64 | 2:22:28 | +89:07 |
| 138971 | #19925 | Helena Nogueira & Amoy GrayW 40-44 · AG #19925 | -- | W 40-44 | 2:22:29 | +89:08 |
| 138972 | #43704 | Keiko Zorrilla & Regina TanPHI · W 30-34 · AG #43704 | PHI | W 30-34 | 2:22:30 | +89:09 |
| 138973 | #15437 | Shaina Louise Gan & Aileen Jane AngPHI · W 35-39 · AG #15437 | PHI | W 35-39 | 2:22:31 | +89:10 |
| 138974 | #43705 | Karime Robbins & Erika CraigUSA · W 30-34 · AG #43705 | USA | W 30-34 | 2:22:32 | +89:11 |
| 138975 | #20662 | 欣 肖 & 睿婷 沈CHN · W 25-29 · AG #20662 | CHN | W 25-29 | 2:22:34 | +89:13 |
Pagina 5,559 di 5,586